TPC2022 KSBN-KPWK
Flight info
| Callsign | TPC2022 |
|---|---|
| Flight time | 1h 32m |
| Altitude | 8000 |
| Route | GIJ CGT |
| Aircraft | C172/L-SD/S |
Departure
| Time | 2026-05-09 04:40 |
|---|---|
| Airport | South Bend International Airport (KSBN) |
Arrival
| Time | 2026-05-09 06:13 |
|---|---|
| Airport | Chicago Executive Airport (KPWK) |
| Time | Latitude | Longitude | Altitude | Speed | Heading |
|---|---|---|---|---|---|
| 2026-05-09 04:09 | 41.70897 | -86.31475 | 778 ft | 0 kts | 0° |
| 2026-05-09 04:34 | 41.70967 | -86.31477 | 778 ft | 16 kts | 359° |
| 2026-05-09 04:34 | 41.71018 | -86.31544 | 779 ft | 8 kts | 269° |
| 2026-05-09 04:35 | 41.71017 | -86.31596 | 780 ft | 6 kts | 268° |
| 2026-05-09 04:35 | 41.71019 | -86.31667 | 781 ft | 9 kts | 290° |
| 2026-05-09 04:35 | 41.71080 | -86.31692 | 782 ft | 9 kts | 0° |
| 2026-05-09 04:35 | 41.71151 | -86.31695 | 783 ft | 13 kts | 358° |
| 2026-05-09 04:36 | 41.71273 | -86.31698 | 784 ft | 19 kts | 0° |
| 2026-05-09 04:36 | 41.71306 | -86.31573 | 783 ft | 13 kts | 88° |
| 2026-05-09 04:36 | 41.71308 | -86.31465 | 781 ft | 10 kts | 89° |
| 2026-05-09 04:36 | 41.71310 | -86.31380 | 781 ft | 8 kts | 89° |
| 2026-05-09 04:37 | 41.71312 | -86.31324 | 780 ft | 3 kts | 65° |
| 2026-05-09 04:37 | 41.71334 | -86.31310 | 780 ft | 3 kts | 6° |
| 2026-05-09 04:37 | 41.71340 | -86.31309 | 780 ft | 0 kts | 4° |
| 2026-05-09 04:38 | 41.71359 | -86.31309 | 780 ft | 8 kts | 359° |
| 2026-05-09 04:38 | 41.71409 | -86.31313 | 781 ft | 2 kts | 338° |
| 2026-05-09 04:39 | 41.71416 | -86.31322 | 781 ft | 1 kts | 298° |
| 2026-05-09 04:39 | 41.71419 | -86.31355 | 781 ft | 18 kts | 268° |
| 2026-05-09 04:39 | 41.71411 | -86.31791 | 795 ft | 68 kts | 269° |
| 2026-05-09 04:39 | 41.71460 | -86.32445 | 1022 ft | 72 kts | 271° |
| 2026-05-09 04:40 | 41.71524 | -86.33099 | 1273 ft | 72 kts | 271° |
| 2026-05-09 04:40 | 41.71598 | -86.33752 | 1540 ft | 69 kts | 272° |
| 2026-05-09 04:40 | 41.71677 | -86.34364 | 1791 ft | 68 kts | 271° |
| 2026-05-09 04:40 | 41.71772 | -86.34981 | 2027 ft | 68 kts | 274° |
| 2026-05-09 04:41 | 41.71889 | -86.35596 | 2272 ft | 69 kts | 277° |
| 2026-05-09 04:41 | 41.72023 | -86.36208 | 2516 ft | 69 kts | 278° |
| 2026-05-09 04:41 | 41.72170 | -86.36815 | 2745 ft | 70 kts | 279° |
| 2026-05-09 04:41 | 41.72333 | -86.37440 | 2955 ft | 73 kts | 282° |
| 2026-05-09 04:42 | 41.72537 | -86.38070 | 3201 ft | 73 kts | 287° |
| 2026-05-09 04:42 | 41.72764 | -86.38681 | 3455 ft | 73 kts | 287° |
| 2026-05-09 04:42 | 41.73154 | -86.39112 | 3700 ft | 87 kts | 347° |
| 2026-05-09 04:42 | 41.73692 | -86.38724 | 3955 ft | 96 kts | 57° |
| 2026-05-09 04:43 | 41.73940 | -86.37906 | 4217 ft | 94 kts | 69° |
| 2026-05-09 04:43 | 41.74178 | -86.37088 | 4456 ft | 96 kts | 67° |
| 2026-05-09 04:43 | 41.74414 | -86.36262 | 4712 ft | 95 kts | 68° |
| 2026-05-09 04:43 | 41.74676 | -86.35445 | 4934 ft | 96 kts | 52° |
| 2026-05-09 04:44 | 41.75075 | -86.34753 | 5199 ft | 93 kts | 46° |
| 2026-05-09 04:44 | 41.75480 | -86.34067 | 5414 ft | 96 kts | 44° |
| 2026-05-09 04:44 | 41.75897 | -86.33381 | 5656 ft | 95 kts | 45° |
| 2026-05-09 04:44 | 41.76294 | -86.32674 | 5891 ft | 95 kts | 47° |
| 2026-05-09 04:45 | 41.76707 | -86.31976 | 6124 ft | 94 kts | 40° |
| 2026-05-09 04:45 | 41.77255 | -86.31715 | 6343 ft | 80 kts | 339° |
| 2026-05-09 04:45 | 41.77592 | -86.32213 | 6543 ft | 77 kts | 278° |
| 2026-05-09 04:45 | 41.77376 | -86.32840 | 6800 ft | 80 kts | 225° |
| 2026-05-09 04:46 | 41.76830 | -86.33106 | 7019 ft | 86 kts | 204° |
| 2026-05-09 04:46 | 41.76336 | -86.33469 | 7210 ft | 78 kts | 248° |
| 2026-05-09 04:46 | 41.76204 | -86.34116 | 7467 ft | 70 kts | 263° |
| 2026-05-09 04:46 | 41.76089 | -86.34747 | 7662 ft | 72 kts | 263° |
| 2026-05-09 04:47 | 41.75994 | -86.35412 | 7860 ft | 73 kts | 266° |
| 2026-05-09 04:47 | 41.75905 | -86.36117 | 7944 ft | 87 kts | 267° |
| 2026-05-09 04:47 | 41.75808 | -86.36990 | 7940 ft | 102 kts | 266° |
| 2026-05-09 04:47 | 41.75709 | -86.37627 | 7965 ft | 107 kts | 260° |
| 2026-05-09 04:48 | 41.75417 | -86.38913 | 8008 ft | 108 kts | 256° |
| 2026-05-09 04:48 | 41.75170 | -86.39879 | 7979 ft | 110 kts | 258° |
| 2026-05-09 04:48 | 41.74952 | -86.40847 | 7986 ft | 109 kts | 260° |
| 2026-05-09 04:48 | 41.74757 | -86.41842 | 7974 ft | 109 kts | 260° |
| 2026-05-09 04:49 | 41.74576 | -86.42829 | 7928 ft | 112 kts | 262° |
| 2026-05-09 04:49 | 41.74419 | -86.43842 | 7936 ft | 110 kts | 263° |
| 2026-05-09 04:49 | 41.74190 | -86.44825 | 7941 ft | 109 kts | 257° |
| 2026-05-09 04:49 | 41.73937 | -86.45783 | 7944 ft | 110 kts | 256° |
| 2026-05-09 04:50 | 41.73688 | -86.46752 | 7937 ft | 110 kts | 258° |
| 2026-05-09 04:50 | 41.73478 | -86.47733 | 7947 ft | 109 kts | 261° |
| 2026-05-09 04:50 | 41.73291 | -86.48716 | 7959 ft | 107 kts | 262° |
| 2026-05-09 04:50 | 41.73124 | -86.49694 | 7943 ft | 108 kts | 263° |
| 2026-05-09 04:51 | 41.72990 | -86.50676 | 7956 ft | 107 kts | 262° |
| 2026-05-09 04:51 | 41.72767 | -86.51646 | 7923 ft | 111 kts | 257° |
| 2026-05-09 04:51 | 41.72539 | -86.52628 | 7923 ft | 110 kts | 258° |
| 2026-05-09 04:51 | 41.72335 | -86.53602 | 7941 ft | 108 kts | 261° |
| 2026-05-09 04:52 | 41.72151 | -86.54581 | 7941 ft | 109 kts | 261° |
| 2026-05-09 04:52 | 41.71966 | -86.55556 | 7964 ft | 108 kts | 261° |
| 2026-05-09 04:52 | 41.71756 | -86.56526 | 7955 ft | 109 kts | 257° |
| 2026-05-09 04:52 | 41.71580 | -86.57180 | 7950 ft | 109 kts | 256° |
| 2026-05-09 04:53 | 41.71222 | -86.58447 | 7943 ft | 109 kts | 256° |
| 2026-05-09 04:53 | 41.70939 | -86.59384 | 7969 ft | 110 kts | 251° |
| 2026-05-09 04:53 | 41.70549 | -86.60289 | 7941 ft | 111 kts | 251° |
| 2026-05-09 04:53 | 41.70336 | -86.61263 | 7917 ft | 109 kts | 263° |
| 2026-05-09 04:54 | 41.70177 | -86.62245 | 7963 ft | 106 kts | 263° |
| 2026-05-09 04:54 | 41.70021 | -86.63215 | 7971 ft | 107 kts | 263° |
| 2026-05-09 04:54 | 41.69873 | -86.64196 | 7981 ft | 106 kts | 264° |
| 2026-05-09 04:54 | 41.69791 | -86.64840 | 7990 ft | 106 kts | 266° |
| 2026-05-09 04:55 | 41.69682 | -86.66161 | 7987 ft | 108 kts | 269° |
| 2026-05-09 04:55 | 41.69508 | -86.67150 | 7999 ft | 109 kts | 257° |
| 2026-05-09 04:55 | 41.69274 | -86.68122 | 8006 ft | 110 kts | 257° |
| 2026-05-09 04:55 | 41.69062 | -86.69103 | 8014 ft | 109 kts | 260° |
| 2026-05-09 04:56 | 41.68864 | -86.70081 | 8026 ft | 109 kts | 259° |
| 2026-05-09 04:56 | 41.68639 | -86.71055 | 8028 ft | 110 kts | 259° |
| 2026-05-09 04:56 | 41.68475 | -86.72055 | 8031 ft | 109 kts | 263° |
| 2026-05-09 04:56 | 41.68319 | -86.73045 | 8037 ft | 109 kts | 262° |
| 2026-05-09 04:57 | 41.68158 | -86.74040 | 8043 ft | 109 kts | 262° |
| 2026-05-09 04:57 | 41.67990 | -86.75035 | 8028 ft | 111 kts | 262° |
| 2026-05-09 04:57 | 41.67815 | -86.76044 | 8005 ft | 112 kts | 261° |
| 2026-05-09 04:57 | 41.67634 | -86.77060 | 7980 ft | 113 kts | 261° |
| 2026-05-09 04:58 | 41.67448 | -86.78077 | 7965 ft | 112 kts | 261° |
| 2026-05-09 04:58 | 41.67262 | -86.79079 | 7967 ft | 111 kts | 261° |
| 2026-05-09 04:58 | 41.67073 | -86.80080 | 7967 ft | 110 kts | 261° |
| 2026-05-09 04:58 | 41.66884 | -86.81066 | 7967 ft | 110 kts | 260° |
| 2026-05-09 04:59 | 41.66690 | -86.82069 | 7967 ft | 110 kts | 260° |
| 2026-05-09 04:59 | 41.66499 | -86.83048 | 7966 ft | 110 kts | 260° |
| 2026-05-09 04:59 | 41.66303 | -86.84044 | 7965 ft | 110 kts | 260° |
| 2026-05-09 04:59 | 41.66108 | -86.85030 | 7966 ft | 110 kts | 260° |
| 2026-05-09 05:00 | 41.65911 | -86.86025 | 7967 ft | 110 kts | 260° |
| 2026-05-09 05:00 | 41.65713 | -86.87019 | 7967 ft | 110 kts | 260° |
| 2026-05-09 05:00 | 41.65514 | -86.88010 | 7970 ft | 110 kts | 260° |
| 2026-05-09 05:00 | 41.65316 | -86.88992 | 7969 ft | 110 kts | 259° |
| 2026-05-09 05:01 | 41.65116 | -86.89986 | 7968 ft | 111 kts | 260° |
| 2026-05-09 05:01 | 41.64914 | -86.90987 | 7966 ft | 111 kts | 259° |
| 2026-05-09 05:01 | 41.64714 | -86.91971 | 7964 ft | 110 kts | 259° |
| 2026-05-09 05:01 | 41.64513 | -86.92961 | 7962 ft | 110 kts | 259° |
| 2026-05-09 05:02 | 41.64312 | -86.93954 | 7963 ft | 110 kts | 260° |
| 2026-05-09 05:02 | 41.64110 | -86.94941 | 7964 ft | 110 kts | 260° |
| 2026-05-09 05:02 | 41.63911 | -86.95921 | 7965 ft | 110 kts | 260° |
| 2026-05-09 05:02 | 41.63707 | -86.96914 | 7965 ft | 110 kts | 259° |
| 2026-05-09 05:03 | 41.63506 | -86.97905 | 7964 ft | 110 kts | 260° |
| 2026-05-09 05:03 | 41.63302 | -86.98898 | 7965 ft | 110 kts | 260° |
| 2026-05-09 05:03 | 41.63101 | -86.99880 | 7964 ft | 110 kts | 260° |
| 2026-05-09 05:03 | 41.62898 | -87.00871 | 7962 ft | 110 kts | 259° |
| 2026-05-09 05:04 | 41.62694 | -87.01868 | 7966 ft | 112 kts | 259° |
| 2026-05-09 05:04 | 41.62485 | -87.02886 | 7953 ft | 112 kts | 259° |
| 2026-05-09 05:04 | 41.62279 | -87.03892 | 7952 ft | 112 kts | 260° |
| 2026-05-09 05:04 | 41.62074 | -87.04887 | 7951 ft | 112 kts | 259° |
| 2026-05-09 05:05 | 41.61867 | -87.05894 | 7950 ft | 111 kts | 260° |
| 2026-05-09 05:05 | 41.61662 | -87.06893 | 7950 ft | 111 kts | 259° |
| 2026-05-09 05:05 | 41.61455 | -87.07895 | 7944 ft | 111 kts | 260° |
| 2026-05-09 05:05 | 41.61250 | -87.08889 | 7944 ft | 110 kts | 260° |
| 2026-05-09 05:06 | 41.61046 | -87.09878 | 7946 ft | 110 kts | 260° |
| 2026-05-09 05:06 | 41.60843 | -87.10861 | 7954 ft | 110 kts | 260° |
| 2026-05-09 05:06 | 41.60640 | -87.11846 | 7951 ft | 110 kts | 260° |
| 2026-05-09 05:06 | 41.60438 | -87.12824 | 7953 ft | 110 kts | 260° |
| 2026-05-09 05:07 | 41.60231 | -87.13830 | 7948 ft | 111 kts | 260° |
| 2026-05-09 05:07 | 41.60026 | -87.14820 | 7942 ft | 111 kts | 260° |
| 2026-05-09 05:07 | 41.59822 | -87.15808 | 7937 ft | 110 kts | 260° |
| 2026-05-09 05:07 | 41.59619 | -87.16790 | 7941 ft | 110 kts | 260° |
| 2026-05-09 05:08 | 41.59416 | -87.17769 | 7944 ft | 110 kts | 259° |
| 2026-05-09 05:08 | 41.59210 | -87.18764 | 7945 ft | 109 kts | 260° |
| 2026-05-09 05:08 | 41.59007 | -87.19746 | 7947 ft | 109 kts | 259° |
| 2026-05-09 05:08 | 41.58871 | -87.20398 | 7945 ft | 110 kts | 260° |
| 2026-05-09 05:09 | 41.58601 | -87.21695 | 7947 ft | 109 kts | 259° |
| 2026-05-09 05:09 | 41.58399 | -87.22669 | 7959 ft | 109 kts | 260° |
| 2026-05-09 05:09 | 41.58196 | -87.23649 | 7959 ft | 109 kts | 260° |
| 2026-05-09 05:09 | 41.57991 | -87.24634 | 7958 ft | 110 kts | 260° |
| 2026-05-09 05:10 | 41.57787 | -87.25619 | 7962 ft | 110 kts | 260° |
| 2026-05-09 05:10 | 41.57583 | -87.26605 | 7951 ft | 110 kts | 260° |
| 2026-05-09 05:10 | 41.57378 | -87.27591 | 7955 ft | 110 kts | 260° |
| 2026-05-09 05:10 | 41.57172 | -87.28579 | 7956 ft | 110 kts | 260° |
| 2026-05-09 05:11 | 41.56966 | -87.29564 | 7954 ft | 110 kts | 259° |
| 2026-05-09 05:11 | 41.56764 | -87.30544 | 7956 ft | 110 kts | 260° |
| 2026-05-09 05:11 | 41.56559 | -87.31525 | 7954 ft | 110 kts | 260° |
| 2026-05-09 05:11 | 41.56352 | -87.32519 | 7955 ft | 110 kts | 260° |
| 2026-05-09 05:12 | 41.56148 | -87.33498 | 7954 ft | 110 kts | 259° |
| 2026-05-09 05:12 | 41.55941 | -87.34486 | 7955 ft | 110 kts | 260° |
| 2026-05-09 05:12 | 41.55735 | -87.35474 | 7955 ft | 110 kts | 260° |
| 2026-05-09 05:12 | 41.55529 | -87.36460 | 7955 ft | 110 kts | 260° |
| 2026-05-09 05:13 | 41.55322 | -87.37453 | 7954 ft | 110 kts | 260° |
| 2026-05-09 05:13 | 41.55117 | -87.38431 | 7953 ft | 110 kts | 260° |
| 2026-05-09 05:13 | 41.54909 | -87.39429 | 7952 ft | 111 kts | 260° |
| 2026-05-09 05:13 | 41.54702 | -87.40417 | 7951 ft | 111 kts | 260° |
| 2026-05-09 05:14 | 41.54496 | -87.41402 | 7951 ft | 110 kts | 260° |
| 2026-05-09 05:14 | 41.54288 | -87.42399 | 7952 ft | 110 kts | 259° |
| 2026-05-09 05:14 | 41.54081 | -87.43387 | 7953 ft | 110 kts | 259° |
| 2026-05-09 05:14 | 41.53876 | -87.44361 | 7955 ft | 110 kts | 259° |
| 2026-05-09 05:15 | 41.53667 | -87.45359 | 7955 ft | 110 kts | 260° |
| 2026-05-09 05:15 | 41.53461 | -87.46339 | 7953 ft | 110 kts | 260° |
| 2026-05-09 05:15 | 41.53251 | -87.47337 | 7952 ft | 110 kts | 260° |
| 2026-05-09 05:15 | 41.53114 | -87.47992 | 7951 ft | 110 kts | 260° |
| 2026-05-09 05:16 | 41.52838 | -87.49303 | 7953 ft | 110 kts | 260° |
| 2026-05-09 05:16 | 41.52632 | -87.50282 | 7953 ft | 110 kts | 260° |
| 2026-05-09 05:16 | 41.52423 | -87.51273 | 7954 ft | 110 kts | 259° |
| 2026-05-09 05:16 | 41.52101 | -87.52219 | 7956 ft | 112 kts | 249° |
| 2026-05-09 05:17 | 41.51953 | -87.53191 | 7952 ft | 106 kts | 283° |
| 2026-05-09 05:17 | 41.52356 | -87.53982 | 7952 ft | 107 kts | 324° |
| 2026-05-09 05:17 | 41.53057 | -87.54347 | 7952 ft | 107 kts | 324° |
| 2026-05-09 05:17 | 41.53432 | -87.55163 | 7955 ft | 107 kts | 280° |
| 2026-05-09 05:18 | 41.53210 | -87.56119 | 7956 ft | 114 kts | 242° |
| 2026-05-09 05:18 | 41.52697 | -87.56926 | 7952 ft | 115 kts | 235° |
| 2026-05-09 05:18 | 41.52146 | -87.57709 | 7950 ft | 116 kts | 234° |
| 2026-05-09 05:18 | 41.51589 | -87.58492 | 7950 ft | 116 kts | 234° |
| 2026-05-09 05:19 | 41.51031 | -87.59279 | 7951 ft | 116 kts | 234° |
| 2026-05-09 05:19 | 41.50483 | -87.60053 | 7953 ft | 116 kts | 234° |
| 2026-05-09 05:19 | 41.49924 | -87.60844 | 7954 ft | 116 kts | 234° |
| 2026-05-09 05:19 | 41.49370 | -87.61633 | 7955 ft | 116 kts | 235° |
| 2026-05-09 05:20 | 41.48822 | -87.62415 | 7954 ft | 116 kts | 234° |
| 2026-05-09 05:20 | 41.48271 | -87.63200 | 7954 ft | 116 kts | 234° |
| 2026-05-09 05:20 | 41.47722 | -87.63985 | 7954 ft | 116 kts | 235° |
| 2026-05-09 05:20 | 41.47168 | -87.64768 | 7954 ft | 116 kts | 234° |
| 2026-05-09 05:21 | 41.46610 | -87.65558 | 7956 ft | 116 kts | 234° |
| 2026-05-09 05:21 | 41.46056 | -87.66348 | 7958 ft | 117 kts | 233° |
| 2026-05-09 05:21 | 41.45504 | -87.67142 | 7954 ft | 117 kts | 233° |
| 2026-05-09 05:21 | 41.44946 | -87.67938 | 7951 ft | 117 kts | 234° |
| 2026-05-09 05:22 | 41.44387 | -87.68733 | 7950 ft | 117 kts | 234° |
| 2026-05-09 05:22 | 41.43826 | -87.69521 | 7949 ft | 117 kts | 233° |
| 2026-05-09 05:22 | 41.43268 | -87.70312 | 7948 ft | 117 kts | 234° |
| 2026-05-09 05:22 | 41.42897 | -87.70837 | 7950 ft | 117 kts | 234° |
| 2026-05-09 05:23 | 41.42155 | -87.71890 | 7949 ft | 117 kts | 233° |
| 2026-05-09 05:23 | 41.41602 | -87.72681 | 7952 ft | 117 kts | 234° |
| 2026-05-09 05:23 | 41.41048 | -87.73468 | 7951 ft | 117 kts | 233° |
| 2026-05-09 05:23 | 41.40490 | -87.74266 | 7949 ft | 116 kts | 234° |
| 2026-05-09 05:24 | 41.39941 | -87.75050 | 7947 ft | 117 kts | 233° |
| 2026-05-09 05:24 | 41.39382 | -87.75854 | 7944 ft | 117 kts | 234° |
| 2026-05-09 05:24 | 41.38828 | -87.76648 | 7939 ft | 117 kts | 234° |
| 2026-05-09 05:24 | 41.38276 | -87.77443 | 7938 ft | 117 kts | 234° |
| 2026-05-09 05:25 | 41.37719 | -87.78238 | 7938 ft | 117 kts | 234° |
| 2026-05-09 05:25 | 41.37164 | -87.79031 | 7936 ft | 117 kts | 234° |
| 2026-05-09 05:25 | 41.36043 | -87.80623 | 7934 ft | 117 kts | 234° |
| 2026-05-09 05:26 | 41.35490 | -87.81406 | 7935 ft | 117 kts | 234° |
| 2026-05-09 05:26 | 41.34934 | -87.82198 | 7934 ft | 117 kts | 234° |
| 2026-05-09 05:26 | 41.34374 | -87.82996 | 7935 ft | 117 kts | 234° |
| 2026-05-09 05:26 | 41.33812 | -87.83794 | 7937 ft | 118 kts | 234° |
| 2026-05-09 05:27 | 41.33251 | -87.84601 | 7937 ft | 118 kts | 234° |
| 2026-05-09 05:27 | 41.32701 | -87.85404 | 7937 ft | 118 kts | 234° |
| 2026-05-09 05:27 | 41.32150 | -87.86210 | 7936 ft | 117 kts | 234° |
| 2026-05-09 05:27 | 41.31608 | -87.87012 | 7936 ft | 117 kts | 234° |
| 2026-05-09 05:28 | 41.31053 | -87.87823 | 7936 ft | 117 kts | 234° |
| 2026-05-09 05:28 | 41.30505 | -87.88614 | 7937 ft | 117 kts | 234° |
| 2026-05-09 05:28 | 41.29944 | -87.89416 | 7936 ft | 117 kts | 234° |
| 2026-05-09 05:28 | 41.29391 | -87.90209 | 7937 ft | 117 kts | 234° |
| 2026-05-09 05:29 | 41.28836 | -87.91008 | 7940 ft | 117 kts | 236° |
| 2026-05-09 05:29 | 41.28577 | -87.91957 | 7939 ft | 108 kts | 279° |
| 2026-05-09 05:29 | 41.28964 | -87.92748 | 7952 ft | 106 kts | 327° |
| 2026-05-09 05:29 | 41.29445 | -87.92902 | 7954 ft | 110 kts | 352° |
| 2026-05-09 05:30 | 41.30473 | -87.92937 | 7961 ft | 112 kts | 356° |
| 2026-05-09 05:30 | 41.31263 | -87.92892 | 7942 ft | 114 kts | 357° |
| 2026-05-09 05:30 | 41.32052 | -87.92882 | 7945 ft | 113 kts | 353° |
| 2026-05-09 05:30 | 41.32854 | -87.92855 | 7934 ft | 115 kts | 0° |
| 2026-05-09 05:31 | 41.33641 | -87.92596 | 7949 ft | 116 kts | 9° |
| 2026-05-09 05:31 | 41.34417 | -87.92328 | 7952 ft | 116 kts | 7° |
| 2026-05-09 05:31 | 41.35206 | -87.92104 | 7953 ft | 115 kts | 4° |
| 2026-05-09 05:31 | 41.35992 | -87.91924 | 7951 ft | 115 kts | 2° |
| 2026-05-09 05:32 | 41.36791 | -87.91775 | 7948 ft | 114 kts | 1° |
| 2026-05-09 05:32 | 41.37577 | -87.91660 | 7947 ft | 114 kts | 359° |
| 2026-05-09 05:32 | 41.38377 | -87.91567 | 7947 ft | 114 kts | 358° |
| 2026-05-09 05:32 | 41.39169 | -87.91498 | 7946 ft | 114 kts | 357° |
| 2026-05-09 05:33 | 41.39954 | -87.91446 | 7946 ft | 113 kts | 356° |
| 2026-05-09 05:33 | 41.40749 | -87.91409 | 7945 ft | 114 kts | 356° |
| 2026-05-09 05:33 | 41.41537 | -87.91375 | 7945 ft | 114 kts | 356° |
| 2026-05-09 05:33 | 41.42331 | -87.91330 | 7944 ft | 114 kts | 356° |
| 2026-05-09 05:34 | 41.43128 | -87.91273 | 7945 ft | 114 kts | 357° |
| 2026-05-09 05:34 | 41.43926 | -87.91207 | 7945 ft | 114 kts | 358° |
| 2026-05-09 05:34 | 41.44727 | -87.91130 | 7943 ft | 114 kts | 357° |
| 2026-05-09 05:34 | 41.45515 | -87.91042 | 7943 ft | 114 kts | 358° |
| 2026-05-09 05:35 | 41.46316 | -87.90943 | 7943 ft | 114 kts | 358° |
| 2026-05-09 05:35 | 41.47107 | -87.90834 | 7947 ft | 114 kts | 359° |
| 2026-05-09 05:35 | 41.47896 | -87.90714 | 7949 ft | 114 kts | 359° |
| 2026-05-09 05:35 | 41.48677 | -87.90635 | 7949 ft | 111 kts | 349° |
| 2026-05-09 05:36 | 41.49449 | -87.90771 | 7950 ft | 111 kts | 345° |
| 2026-05-09 05:36 | 41.50213 | -87.90916 | 7950 ft | 111 kts | 346° |
| 2026-05-09 05:36 | 41.50980 | -87.91045 | 7949 ft | 112 kts | 346° |
| 2026-05-09 05:36 | 41.51762 | -87.91163 | 7948 ft | 112 kts | 347° |
| 2026-05-09 05:37 | 41.52542 | -87.91267 | 7946 ft | 113 kts | 347° |
| 2026-05-09 05:37 | 41.53330 | -87.91361 | 7946 ft | 112 kts | 348° |
| 2026-05-09 05:37 | 41.54110 | -87.91446 | 7947 ft | 112 kts | 348° |
| 2026-05-09 05:37 | 41.54894 | -87.91524 | 7947 ft | 112 kts | 348° |
| 2026-05-09 05:38 | 41.55669 | -87.91594 | 7946 ft | 112 kts | 349° |
| 2026-05-09 05:38 | 41.56452 | -87.91661 | 7945 ft | 112 kts | 349° |
| 2026-05-09 05:38 | 41.57223 | -87.91722 | 7945 ft | 112 kts | 349° |
| 2026-05-09 05:38 | 41.58001 | -87.91780 | 7946 ft | 112 kts | 349° |
| 2026-05-09 05:39 | 41.58791 | -87.91838 | 7945 ft | 112 kts | 349° |
| 2026-05-09 05:39 | 41.59571 | -87.91891 | 7944 ft | 112 kts | 350° |
| 2026-05-09 05:39 | 41.60350 | -87.91942 | 7944 ft | 112 kts | 350° |
| 2026-05-09 05:39 | 41.61139 | -87.91992 | 7945 ft | 113 kts | 350° |
| 2026-05-09 05:40 | 41.61925 | -87.92039 | 7944 ft | 113 kts | 350° |
| 2026-05-09 05:40 | 41.62707 | -87.92085 | 7944 ft | 113 kts | 350° |
| 2026-05-09 05:40 | 41.63502 | -87.92131 | 7944 ft | 113 kts | 350° |
| 2026-05-09 05:40 | 41.64282 | -87.92175 | 7944 ft | 113 kts | 350° |
| 2026-05-09 05:41 | 41.65072 | -87.92218 | 7943 ft | 112 kts | 350° |
| 2026-05-09 05:41 | 41.65851 | -87.92260 | 7943 ft | 112 kts | 350° |
| 2026-05-09 05:41 | 41.66631 | -87.92303 | 7943 ft | 112 kts | 350° |
| 2026-05-09 05:41 | 41.67415 | -87.92345 | 7943 ft | 112 kts | 350° |
| 2026-05-09 05:42 | 41.68194 | -87.92386 | 7943 ft | 112 kts | 349° |
| 2026-05-09 05:42 | 41.68975 | -87.92426 | 7942 ft | 112 kts | 349° |
| 2026-05-09 05:42 | 41.69760 | -87.92468 | 7942 ft | 112 kts | 349° |
| 2026-05-09 05:42 | 41.70540 | -87.92509 | 7941 ft | 112 kts | 349° |
| 2026-05-09 05:43 | 41.71325 | -87.92550 | 7939 ft | 113 kts | 350° |
| 2026-05-09 05:43 | 41.72115 | -87.92591 | 7937 ft | 113 kts | 349° |
| 2026-05-09 05:43 | 41.72906 | -87.92632 | 7936 ft | 113 kts | 349° |
| 2026-05-09 05:43 | 41.73433 | -87.92660 | 7934 ft | 114 kts | 349° |
| 2026-05-09 05:44 | 41.74496 | -87.92714 | 7932 ft | 114 kts | 349° |
| 2026-05-09 05:44 | 41.75281 | -87.92753 | 7931 ft | 113 kts | 349° |
| 2026-05-09 05:44 | 41.76078 | -87.92793 | 7928 ft | 113 kts | 349° |
| 2026-05-09 05:44 | 41.76870 | -87.92832 | 7928 ft | 113 kts | 348° |
| 2026-05-09 05:45 | 41.77654 | -87.92871 | 7928 ft | 113 kts | 349° |
| 2026-05-09 05:45 | 41.78450 | -87.92912 | 7928 ft | 113 kts | 349° |
| 2026-05-09 05:45 | 41.79235 | -87.92954 | 7929 ft | 113 kts | 348° |
| 2026-05-09 05:45 | 41.80018 | -87.92993 | 7929 ft | 113 kts | 348° |
| 2026-05-09 05:46 | 41.80813 | -87.93033 | 7930 ft | 113 kts | 348° |
| 2026-05-09 05:46 | 41.81594 | -87.93073 | 7933 ft | 113 kts | 348° |
| 2026-05-09 05:46 | 41.82386 | -87.93113 | 7936 ft | 113 kts | 348° |
| 2026-05-09 05:46 | 41.83165 | -87.93153 | 7938 ft | 113 kts | 348° |
| 2026-05-09 05:47 | 41.83960 | -87.93195 | 7938 ft | 113 kts | 348° |
| 2026-05-09 05:47 | 41.84744 | -87.93236 | 7939 ft | 113 kts | 348° |
| 2026-05-09 05:47 | 41.85534 | -87.93274 | 7939 ft | 113 kts | 348° |
| 2026-05-09 05:47 | 41.86320 | -87.93314 | 7938 ft | 113 kts | 348° |
| 2026-05-09 05:48 | 41.87109 | -87.93353 | 7937 ft | 113 kts | 348° |
| 2026-05-09 05:48 | 41.87902 | -87.93394 | 7936 ft | 113 kts | 348° |
| 2026-05-09 05:48 | 41.88687 | -87.93434 | 7935 ft | 113 kts | 347° |
| 2026-05-09 05:48 | 41.89481 | -87.93475 | 7935 ft | 113 kts | 348° |
| 2026-05-09 05:49 | 41.90274 | -87.93516 | 7936 ft | 113 kts | 348° |
| 2026-05-09 05:49 | 41.91067 | -87.93558 | 7936 ft | 113 kts | 348° |
| 2026-05-09 05:49 | 41.91848 | -87.93597 | 7936 ft | 113 kts | 348° |
| 2026-05-09 05:49 | 41.92641 | -87.93639 | 7937 ft | 113 kts | 348° |
| 2026-05-09 05:50 | 41.93428 | -87.93678 | 7936 ft | 113 kts | 348° |
| 2026-05-09 05:50 | 41.94222 | -87.93718 | 7935 ft | 114 kts | 348° |
| 2026-05-09 05:50 | 41.95020 | -87.93758 | 7935 ft | 114 kts | 347° |
| 2026-05-09 05:50 | 41.95544 | -87.93776 | 7908 ft | 112 kts | 349° |
| 2026-05-09 05:51 | 41.96621 | -87.93771 | 7622 ft | 118 kts | 350° |
| 2026-05-09 05:51 | 41.97429 | -87.93759 | 7505 ft | 112 kts | 349° |
| 2026-05-09 05:51 | 41.98211 | -87.93793 | 7338 ft | 113 kts | 348° |
| 2026-05-09 05:51 | 41.99003 | -87.93834 | 7171 ft | 114 kts | 348° |
| 2026-05-09 05:52 | 41.99789 | -87.93869 | 7023 ft | 114 kts | 348° |
| 2026-05-09 05:52 | 42.00587 | -87.93922 | 6850 ft | 115 kts | 347° |
| 2026-05-09 05:52 | 42.01393 | -87.93981 | 6696 ft | 115 kts | 348° |
| 2026-05-09 05:52 | 42.02196 | -87.94034 | 6546 ft | 115 kts | 347° |
| 2026-05-09 05:53 | 42.03000 | -87.94100 | 6384 ft | 116 kts | 347° |
| 2026-05-09 05:53 | 42.03812 | -87.94151 | 6281 ft | 113 kts | 348° |
| 2026-05-09 05:53 | 42.04587 | -87.94160 | 6170 ft | 113 kts | 347° |
| 2026-05-09 05:53 | 42.05400 | -87.94184 | 6018 ft | 117 kts | 348° |
| 2026-05-09 05:54 | 42.06209 | -87.94235 | 5906 ft | 117 kts | 348° |
| 2026-05-09 05:54 | 42.07027 | -87.94276 | 5792 ft | 117 kts | 348° |
| 2026-05-09 05:54 | 42.07847 | -87.94324 | 5625 ft | 120 kts | 347° |
| 2026-05-09 05:54 | 42.08700 | -87.94362 | 5456 ft | 123 kts | 349° |
| 2026-05-09 05:55 | 42.09553 | -87.94389 | 5318 ft | 121 kts | 346° |
| 2026-05-09 05:55 | 42.10390 | -87.94482 | 5168 ft | 120 kts | 344° |
| 2026-05-09 05:55 | 42.11233 | -87.94585 | 4992 ft | 123 kts | 344° |
| 2026-05-09 05:55 | 42.12084 | -87.94666 | 4880 ft | 122 kts | 347° |
| 2026-05-09 05:56 | 42.12931 | -87.94679 | 4774 ft | 121 kts | 349° |
| 2026-05-09 05:56 | 42.13784 | -87.94717 | 4618 ft | 123 kts | 348° |
| 2026-05-09 05:56 | 42.14647 | -87.94752 | 4494 ft | 123 kts | 348° |
| 2026-05-09 05:56 | 42.15506 | -87.94795 | 4349 ft | 124 kts | 347° |
| 2026-05-09 05:57 | 42.16363 | -87.94841 | 4219 ft | 124 kts | 347° |
| 2026-05-09 05:57 | 42.17221 | -87.94875 | 4120 ft | 123 kts | 347° |
| 2026-05-09 05:57 | 42.18078 | -87.94929 | 4012 ft | 122 kts | 344° |
| 2026-05-09 05:57 | 42.18927 | -87.94991 | 3907 ft | 123 kts | 346° |
| 2026-05-09 05:58 | 42.19791 | -87.95039 | 3799 ft | 124 kts | 346° |
| 2026-05-09 05:58 | 42.20658 | -87.95084 | 3693 ft | 124 kts | 346° |
| 2026-05-09 05:58 | 42.21526 | -87.95120 | 3600 ft | 123 kts | 345° |
| 2026-05-09 05:58 | 42.22368 | -87.95219 | 3497 ft | 118 kts | 333° |
| 2026-05-09 05:59 | 42.23154 | -87.95508 | 3397 ft | 118 kts | 331° |
| 2026-05-09 05:59 | 42.23926 | -87.95875 | 3288 ft | 114 kts | 321° |
| 2026-05-09 05:59 | 42.24648 | -87.96368 | 3259 ft | 116 kts | 318° |
| 2026-05-09 05:59 | 42.25342 | -87.96890 | 3325 ft | 115 kts | 318° |
| 2026-05-09 06:00 | 42.26039 | -87.97425 | 3355 ft | 117 kts | 317° |
| 2026-05-09 06:00 | 42.26910 | -87.97576 | 3334 ft | 140 kts | 4° |
| 2026-05-09 06:00 | 42.27826 | -87.97103 | 3375 ft | 140 kts | 14° |
| 2026-05-09 06:00 | 42.28739 | -87.96621 | 3405 ft | 140 kts | 13° |
| 2026-05-09 06:01 | 42.29657 | -87.96159 | 3439 ft | 140 kts | 11° |
| 2026-05-09 06:01 | 42.30577 | -87.95722 | 3465 ft | 139 kts | 11° |
| 2026-05-09 06:01 | 42.31486 | -87.95293 | 3523 ft | 136 kts | 9° |
| 2026-05-09 06:01 | 42.32313 | -87.94638 | 3514 ft | 143 kts | 47° |
| 2026-05-09 06:02 | 42.32656 | -87.93426 | 3493 ft | 139 kts | 95° |
| 2026-05-09 06:02 | 42.32359 | -87.92277 | 3468 ft | 122 kts | 143° |
| 2026-05-09 06:02 | 42.31676 | -87.91865 | 3433 ft | 100 kts | 194° |
| 2026-05-09 06:02 | 42.31049 | -87.92121 | 3415 ft | 94 kts | 208° |
| 2026-05-09 06:03 | 42.30436 | -87.92383 | 3322 ft | 85 kts | 205° |
| 2026-05-09 06:03 | 42.29912 | -87.92549 | 3290 ft | 72 kts | 204° |
| 2026-05-09 06:03 | 42.29459 | -87.92737 | 3286 ft | 66 kts | 210° |
| 2026-05-09 06:03 | 42.29014 | -87.92931 | 3273 ft | 66 kts | 209° |
| 2026-05-09 06:04 | 42.28572 | -87.93124 | 3282 ft | 67 kts | 209° |
| 2026-05-09 06:04 | 42.28125 | -87.93304 | 3296 ft | 67 kts | 207° |
| 2026-05-09 06:04 | 42.27665 | -87.93485 | 3301 ft | 68 kts | 208° |
| 2026-05-09 06:04 | 42.27372 | -87.93622 | 3300 ft | 68 kts | 209° |
| 2026-05-09 06:05 | 42.26786 | -87.93927 | 3296 ft | 68 kts | 212° |
| 2026-05-09 06:05 | 42.26345 | -87.94169 | 3296 ft | 68 kts | 211° |
| 2026-05-09 06:05 | 42.25899 | -87.94392 | 3284 ft | 68 kts | 210° |
| 2026-05-09 06:05 | 42.25457 | -87.94627 | 3274 ft | 68 kts | 212° |
| 2026-05-09 06:06 | 42.25024 | -87.94892 | 3266 ft | 67 kts | 214° |
| 2026-05-09 06:06 | 42.24619 | -87.95207 | 3265 ft | 66 kts | 217° |
| 2026-05-09 06:06 | 42.24201 | -87.95472 | 3266 ft | 65 kts | 214° |
| 2026-05-09 06:06 | 42.23786 | -87.95770 | 3100 ft | 69 kts | 217° |
| 2026-05-09 06:07 | 42.23348 | -87.96058 | 2953 ft | 73 kts | 205° |
| 2026-05-09 06:07 | 42.22814 | -87.95903 | 2838 ft | 79 kts | 179° |
| 2026-05-09 06:07 | 42.22273 | -87.95697 | 2694 ft | 79 kts | 184° |
| 2026-05-09 06:07 | 42.21723 | -87.95557 | 2556 ft | 80 kts | 185° |
| 2026-05-09 06:08 | 42.21175 | -87.95350 | 2426 ft | 84 kts | 174° |
| 2026-05-09 06:08 | 42.20624 | -87.95029 | 2255 ft | 88 kts | 172° |
| 2026-05-09 06:08 | 42.20066 | -87.94723 | 2104 ft | 87 kts | 174° |
| 2026-05-09 06:08 | 42.19534 | -87.94443 | 2029 ft | 82 kts | 175° |
| 2026-05-09 06:09 | 42.18985 | -87.94167 | 1778 ft | 87 kts | 175° |
| 2026-05-09 06:09 | 42.18418 | -87.93890 | 1589 ft | 84 kts | 175° |
| 2026-05-09 06:09 | 42.17875 | -87.93636 | 1457 ft | 80 kts | 173° |
| 2026-05-09 06:09 | 42.17354 | -87.93377 | 1328 ft | 82 kts | 168° |
| 2026-05-09 06:10 | 42.16839 | -87.93039 | 1279 ft | 80 kts | 165° |
| 2026-05-09 06:10 | 42.16336 | -87.92750 | 1312 ft | 75 kts | 169° |
| 2026-05-09 06:10 | 42.15850 | -87.92526 | 1271 ft | 77 kts | 171° |
| 2026-05-09 06:10 | 42.15340 | -87.92304 | 1347 ft | 72 kts | 173° |
| 2026-05-09 06:11 | 42.14880 | -87.92019 | 1240 ft | 66 kts | 168° |
| 2026-05-09 06:11 | 42.14490 | -87.91826 | 1153 ft | 58 kts | 175° |
| 2026-05-09 06:11 | 42.14120 | -87.91634 | 1089 ft | 57 kts | 172° |
| 2026-05-09 06:11 | 42.13868 | -87.91505 | 1031 ft | 57 kts | 171° |
| 2026-05-09 06:12 | 42.13372 | -87.91243 | 920 ft | 57 kts | 170° |
| 2026-05-09 06:12 | 42.12983 | -87.91045 | 821 ft | 60 kts | 167° |
| 2026-05-09 06:12 | 42.12594 | -87.90839 | 749 ft | 60 kts | 167° |
| 2026-05-09 06:12 | 42.12195 | -87.90639 | 643 ft | 61 kts | 165° |
| 2026-05-09 06:13 | 42.11886 | -87.90479 | 640 ft | 36 kts | 160° |
| 2026-05-09 06:13 | 42.11713 | -87.90386 | 641 ft | 18 kts | 158° |
| 2026-05-09 06:13 | 42.11675 | -87.90316 | 641 ft | 4 kts | 90° |
| 2026-05-09 06:13 | 42.11685 | -87.90264 | 641 ft | 6 kts | 68° |
| 2026-05-09 06:14 | 42.11691 | -87.90243 | 641 ft | 0 kts | 68° |
| 2026-05-09 06:14 | 42.11722 | -87.90138 | 640 ft | 20 kts | 70° |
| 2026-05-09 06:15 | 42.11704 | -87.90005 | 638 ft | 9 kts | 75° |
| 2026-05-09 06:15 | 42.11706 | -87.89996 | 638 ft | 0 kts | 74° |